RYR23F EDDB-EDDF
Flight info
| Callsign | RYR23F |
|---|---|
| Flight time | 0h 53m |
| Altitude | 23000 |
| Route | KISUC1N KISUC Z117 ODLUN/N0418F240 DCT ORTAG/N0406F220 T177 ODIPI/N0399F210 T157 KERAX KERAX5A |
| Aircraft | B738/M-SDE2E3FGHIRWXY/LB1 |
Departure
| Time | 2026-04-16 22:36 |
|---|---|
| Airport | Berlin Brandenburg Airport (EDDB) |
Arrival
| Time | 2026-04-16 23:29 |
|---|---|
| Airport | Frankfurt Main Airport (EDDF) |
| Time | Latitude | Longitude | Altitude | Speed | Heading |
|---|---|---|---|---|---|
| 2026-04-16 21:53 | 52.36765 | 13.50617 | 154 ft | 0 kts | 159° |
| 2026-04-16 22:20 | 52.36776 | 13.50611 | 154 ft | 4 kts | 159° |
| 2026-04-16 22:20 | 52.36800 | 13.50595 | 154 ft | 3 kts | 158° |
| 2026-04-16 22:21 | 52.36823 | 13.50585 | 154 ft | 4 kts | 196° |
| 2026-04-16 22:21 | 52.36840 | 13.50609 | 154 ft | 4 kts | 246° |
| 2026-04-16 22:21 | 52.36845 | 13.50629 | 154 ft | 1 kts | 249° |
| 2026-04-16 22:21 | 52.36845 | 13.50630 | 154 ft | 0 kts | 249° |
| 2026-04-16 22:25 | 52.36845 | 13.50629 | 154 ft | 2 kts | 249° |
| 2026-04-16 22:25 | 52.36832 | 13.50575 | 154 ft | 6 kts | 249° |
| 2026-04-16 22:25 | 52.36816 | 13.50508 | 154 ft | 7 kts | 249° |
| 2026-04-16 22:25 | 52.36799 | 13.50436 | 154 ft | 8 kts | 249° |
| 2026-04-16 22:26 | 52.36779 | 13.50351 | 154 ft | 8 kts | 249° |
| 2026-04-16 22:26 | 52.36758 | 13.50265 | 154 ft | 9 kts | 249° |
| 2026-04-16 22:26 | 52.36723 | 13.50175 | 154 ft | 10 kts | 212° |
| 2026-04-16 22:26 | 52.36659 | 13.50184 | 153 ft | 9 kts | 161° |
| 2026-04-16 22:27 | 52.36598 | 13.50222 | 153 ft | 9 kts | 159° |
| 2026-04-16 22:27 | 52.36538 | 13.50260 | 153 ft | 9 kts | 159° |
| 2026-04-16 22:27 | 52.36472 | 13.50302 | 153 ft | 13 kts | 159° |
| 2026-04-16 22:27 | 52.36372 | 13.50365 | 153 ft | 16 kts | 159° |
| 2026-04-16 22:28 | 52.36260 | 13.50436 | 153 ft | 18 kts | 159° |
| 2026-04-16 22:28 | 52.36137 | 13.50513 | 153 ft | 19 kts | 159° |
| 2026-04-16 22:28 | 52.36017 | 13.50589 | 153 ft | 19 kts | 159° |
| 2026-04-16 22:28 | 52.35916 | 13.50659 | 153 ft | 13 kts | 142° |
| 2026-04-16 22:29 | 52.35858 | 13.50766 | 153 ft | 12 kts | 147° |
| 2026-04-16 22:29 | 52.35778 | 13.50821 | 153 ft | 13 kts | 158° |
| 2026-04-16 22:29 | 52.35753 | 13.50942 | 153 ft | 13 kts | 71° |
| 2026-04-16 22:29 | 52.35784 | 13.51075 | 153 ft | 13 kts | 68° |
| 2026-04-16 22:30 | 52.35826 | 13.51251 | 153 ft | 17 kts | 68° |
| 2026-04-16 22:30 | 52.35869 | 13.51430 | 153 ft | 17 kts | 68° |
| 2026-04-16 22:30 | 52.35913 | 13.51619 | 153 ft | 19 kts | 69° |
| 2026-04-16 22:30 | 52.35959 | 13.51814 | 154 ft | 18 kts | 69° |
| 2026-04-16 22:31 | 52.36003 | 13.52001 | 154 ft | 17 kts | 69° |
| 2026-04-16 22:31 | 52.36024 | 13.52093 | 154 ft | 6 kts | 75° |
| 2026-04-16 22:31 | 52.36008 | 13.52171 | 154 ft | 10 kts | 140° |
| 2026-04-16 22:31 | 52.35949 | 13.52214 | 154 ft | 0 kts | 159° |
| 2026-04-16 22:32 | 52.35947 | 13.52216 | 154 ft | 1 kts | 159° |
| 2026-04-16 22:32 | 52.35929 | 13.52227 | 154 ft | 4 kts | 159° |
| 2026-04-16 22:32 | 52.35894 | 13.52250 | 154 ft | 7 kts | 159° |
| 2026-04-16 22:33 | 52.35842 | 13.52253 | 154 ft | 9 kts | 205° |
| 2026-04-16 22:33 | 52.35809 | 13.52174 | 154 ft | 0 kts | 249° |
| 2026-04-16 22:33 | 52.35800 | 13.52138 | 153 ft | 0 kts | 249° |
| 2026-04-16 22:35 | 52.35796 | 13.52120 | 154 ft | 17 kts | 249° |
| 2026-04-16 22:35 | 52.35668 | 13.51582 | 153 ft | 88 kts | 249° |
| 2026-04-16 22:36 | 52.35353 | 13.50244 | 158 ft | 161 kts | 250° |
| 2026-04-16 22:36 | 52.34903 | 13.48374 | 730 ft | 181 kts | 250° |
| 2026-04-16 22:36 | 52.34453 | 13.46393 | 1734 ft | 183 kts | 249° |
| 2026-04-16 22:36 | 52.33848 | 13.44579 | 2676 ft | 195 kts | 234° |
| 2026-04-16 22:37 | 52.32904 | 13.42787 | 2937 ft | 219 kts | 228° |
| 2026-04-16 22:37 | 52.31849 | 13.40922 | 3396 ft | 228 kts | 229° |
| 2026-04-16 22:37 | 52.30768 | 13.38988 | 4002 ft | 231 kts | 229° |
| 2026-04-16 22:37 | 52.29686 | 13.37022 | 4697 ft | 234 kts | 230° |
| 2026-04-16 22:38 | 52.28604 | 13.35034 | 5506 ft | 233 kts | 231° |
| 2026-04-16 22:38 | 52.27526 | 13.33040 | 6262 ft | 235 kts | 231° |
| 2026-04-16 22:38 | 52.26439 | 13.31025 | 6973 ft | 238 kts | 231° |
| 2026-04-16 22:38 | 52.25338 | 13.28984 | 7675 ft | 241 kts | 231° |
| 2026-04-16 22:39 | 52.24272 | 13.26876 | 8346 ft | 242 kts | 241° |
| 2026-04-16 22:39 | 52.23533 | 13.24296 | 8615 ft | 263 kts | 251° |
| 2026-04-16 22:39 | 52.22848 | 13.21426 | 9082 ft | 276 kts | 251° |
| 2026-04-16 22:39 | 52.22141 | 13.18489 | 9777 ft | 279 kts | 251° |
| 2026-04-16 22:40 | 52.21426 | 13.15564 | 10643 ft | 277 kts | 250° |
| 2026-04-16 22:40 | 52.20712 | 13.12682 | 11404 ft | 278 kts | 250° |
| 2026-04-16 22:40 | 52.19983 | 13.09770 | 12169 ft | 278 kts | 250° |
| 2026-04-16 22:40 | 52.19247 | 13.06842 | 12896 ft | 279 kts | 251° |
| 2026-04-16 22:41 | 52.18505 | 13.03900 | 13563 ft | 283 kts | 251° |
| 2026-04-16 22:41 | 52.17748 | 13.00914 | 14219 ft | 286 kts | 251° |
| 2026-04-16 22:41 | 52.16985 | 12.97911 | 14851 ft | 288 kts | 251° |
| 2026-04-16 22:41 | 52.16239 | 12.94863 | 15496 ft | 291 kts | 255° |
| 2026-04-16 22:42 | 52.15706 | 12.91595 | 15686 ft | 308 kts | 260° |
| 2026-04-16 22:42 | 52.15249 | 12.88075 | 15841 ft | 327 kts | 261° |
| 2026-04-16 22:42 | 52.14773 | 12.84347 | 15975 ft | 345 kts | 261° |
| 2026-04-16 22:42 | 52.14578 | 12.82859 | 16025 ft | 352 kts | 260° |
| 2026-04-16 22:43 | 52.14401 | 12.81529 | 16070 ft | 358 kts | 260° |
| 2026-04-16 22:43 | 52.13849 | 12.77491 | 16249 ft | 373 kts | 259° |
| 2026-04-16 22:43 | 52.13265 | 12.73340 | 16709 ft | 378 kts | 259° |
| 2026-04-16 22:43 | 52.12669 | 12.69164 | 17285 ft | 380 kts | 259° |
| 2026-04-16 22:44 | 52.12262 | 12.66326 | 17646 ft | 380 kts | 259° |
| 2026-04-16 22:44 | 52.11970 | 12.64296 | 17843 ft | 383 kts | 259° |
| 2026-04-16 22:44 | 52.11800 | 12.63113 | 17963 ft | 384 kts | 259° |
| 2026-04-16 22:44 | 52.11335 | 12.59897 | 18335 ft | 387 kts | 259° |
| 2026-04-16 22:45 | 52.11093 | 12.58223 | 18552 ft | 387 kts | 260° |
| 2026-04-16 22:45 | 52.10502 | 12.54148 | 19061 ft | 389 kts | 260° |
| 2026-04-16 22:45 | 52.09877 | 12.49842 | 19565 ft | 392 kts | 260° |
| 2026-04-16 22:45 | 52.09247 | 12.45512 | 20056 ft | 394 kts | 260° |
| 2026-04-16 22:46 | 52.09029 | 12.44013 | 20236 ft | 395 kts | 260° |
| 2026-04-16 22:46 | 52.08395 | 12.39668 | 20724 ft | 397 kts | 260° |
| 2026-04-16 22:46 | 52.07752 | 12.35282 | 21183 ft | 399 kts | 260° |
| 2026-04-16 22:46 | 52.06794 | 12.30993 | 21573 ft | 412 kts | 245° |
| 2026-04-16 22:47 | 52.05105 | 12.27157 | 22037 ft | 418 kts | 238° |
| 2026-04-16 22:47 | 52.03353 | 12.23452 | 22458 ft | 420 kts | 238° |
| 2026-04-16 22:47 | 52.01577 | 12.19654 | 22813 ft | 424 kts | 238° |
| 2026-04-16 22:47 | 51.99799 | 12.15819 | 23193 ft | 426 kts | 239° |
| 2026-04-16 22:48 | 51.98009 | 12.11938 | 23220 ft | 432 kts | 239° |
| 2026-04-16 22:48 | 51.96209 | 12.08028 | 23238 ft | 433 kts | 239° |
| 2026-04-16 22:48 | 51.94404 | 12.04114 | 23238 ft | 433 kts | 239° |
| 2026-04-16 22:48 | 51.92604 | 12.00215 | 23236 ft | 432 kts | 239° |
| 2026-04-16 22:49 | 51.91412 | 11.97635 | 23241 ft | 432 kts | 239° |
| 2026-04-16 22:49 | 51.89002 | 11.92428 | 23241 ft | 432 kts | 239° |
| 2026-04-16 22:49 | 51.87811 | 11.89856 | 23237 ft | 432 kts | 239° |
| 2026-04-16 22:49 | 51.86004 | 11.85962 | 23241 ft | 432 kts | 239° |
| 2026-04-16 22:50 | 51.84198 | 11.82085 | 23243 ft | 432 kts | 238° |
| 2026-04-16 22:50 | 51.82374 | 11.78214 | 23240 ft | 432 kts | 238° |
| 2026-04-16 22:50 | 51.80548 | 11.74366 | 23233 ft | 433 kts | 238° |
| 2026-04-16 22:50 | 51.78710 | 11.70503 | 23236 ft | 432 kts | 238° |
| 2026-04-16 22:51 | 51.76880 | 11.66659 | 23240 ft | 432 kts | 238° |
| 2026-04-16 22:51 | 51.75042 | 11.62798 | 23244 ft | 433 kts | 238° |
| 2026-04-16 22:51 | 51.73227 | 11.58988 | 23242 ft | 433 kts | 238° |
| 2026-04-16 22:51 | 51.71393 | 11.55142 | 23239 ft | 433 kts | 238° |
| 2026-04-16 22:52 | 51.69554 | 11.51290 | 23242 ft | 433 kts | 238° |
| 2026-04-16 22:52 | 51.67713 | 11.47440 | 23236 ft | 434 kts | 238° |
| 2026-04-16 22:52 | 51.65871 | 11.43594 | 23241 ft | 434 kts | 238° |
| 2026-04-16 22:52 | 51.64024 | 11.39741 | 23236 ft | 435 kts | 238° |
| 2026-04-16 22:53 | 51.62167 | 11.35873 | 23240 ft | 435 kts | 237° |
| 2026-04-16 22:53 | 51.60318 | 11.32029 | 23241 ft | 435 kts | 237° |
| 2026-04-16 22:53 | 51.58464 | 11.28179 | 23232 ft | 435 kts | 237° |
| 2026-04-16 22:53 | 51.56608 | 11.24332 | 23238 ft | 434 kts | 237° |
| 2026-04-16 22:54 | 51.54749 | 11.20485 | 23239 ft | 435 kts | 237° |
| 2026-04-16 22:54 | 51.52894 | 11.16650 | 23236 ft | 435 kts | 237° |
| 2026-04-16 22:54 | 51.51066 | 11.12876 | 23243 ft | 434 kts | 237° |
| 2026-04-16 22:54 | 51.49207 | 11.09039 | 23238 ft | 434 kts | 238° |
| 2026-04-16 22:55 | 51.47533 | 11.05064 | 23244 ft | 429 kts | 244° |
| 2026-04-16 22:55 | 51.46071 | 11.00889 | 23247 ft | 428 kts | 246° |
| 2026-04-16 22:55 | 51.44650 | 10.96693 | 23250 ft | 428 kts | 246° |
| 2026-04-16 22:55 | 51.43230 | 10.92498 | 23251 ft | 428 kts | 246° |
| 2026-04-16 22:56 | 51.41803 | 10.88326 | 23244 ft | 428 kts | 246° |
| 2026-04-16 22:56 | 51.40353 | 10.84139 | 23249 ft | 429 kts | 245° |
| 2026-04-16 22:56 | 51.38896 | 10.79973 | 23245 ft | 429 kts | 245° |
| 2026-04-16 22:56 | 51.37434 | 10.75816 | 23249 ft | 429 kts | 245° |
| 2026-04-16 22:57 | 51.35968 | 10.71658 | 23251 ft | 429 kts | 245° |
| 2026-04-16 22:57 | 51.34504 | 10.67515 | 23251 ft | 428 kts | 245° |
| 2026-04-16 22:57 | 51.33037 | 10.63368 | 23257 ft | 428 kts | 245° |
| 2026-04-16 22:57 | 51.31567 | 10.59218 | 23254 ft | 428 kts | 245° |
| 2026-04-16 22:58 | 51.30101 | 10.55080 | 23256 ft | 428 kts | 245° |
| 2026-04-16 22:58 | 51.28628 | 10.50935 | 23255 ft | 428 kts | 245° |
| 2026-04-16 22:58 | 51.27120 | 10.46817 | 23261 ft | 430 kts | 242° |
| 2026-04-16 22:58 | 51.25324 | 10.42962 | 23257 ft | 434 kts | 235° |
| 2026-04-16 22:59 | 51.23391 | 10.39251 | 23267 ft | 435 kts | 235° |
| 2026-04-16 22:59 | 51.21486 | 10.35594 | 23263 ft | 435 kts | 235° |
| 2026-04-16 22:59 | 51.19576 | 10.31859 | 23260 ft | 434 kts | 236° |
| 2026-04-16 22:59 | 51.17678 | 10.28105 | 23252 ft | 434 kts | 236° |
| 2026-04-16 23:00 | 51.15565 | 10.24627 | 23229 ft | 445 kts | 220° |
| 2026-04-16 23:00 | 51.12799 | 10.22325 | 23269 ft | 455 kts | 204° |
| 2026-04-16 23:00 | 51.09669 | 10.21299 | 23251 ft | 466 kts | 187° |
| 2026-04-16 23:00 | 51.06420 | 10.21230 | 23267 ft | 468 kts | 184° |
| 2026-04-16 23:01 | 51.03160 | 10.21262 | 23260 ft | 468 kts | 184° |
| 2026-04-16 23:01 | 50.99900 | 10.21284 | 23245 ft | 468 kts | 184° |
| 2026-04-16 23:01 | 50.96649 | 10.21265 | 23255 ft | 468 kts | 184° |
| 2026-04-16 23:01 | 50.93388 | 10.21213 | 23256 ft | 467 kts | 185° |
| 2026-04-16 23:02 | 50.90137 | 10.21146 | 23261 ft | 468 kts | 185° |
| 2026-04-16 23:02 | 50.86878 | 10.21077 | 23259 ft | 468 kts | 185° |
| 2026-04-16 23:02 | 50.83676 | 10.20520 | 23238 ft | 459 kts | 201° |
| 2026-04-16 23:02 | 50.80823 | 10.18442 | 23256 ft | 447 kts | 218° |
| 2026-04-16 23:03 | 50.78456 | 10.15360 | 23264 ft | 439 kts | 231° |
| 2026-04-16 23:03 | 50.76627 | 10.11569 | 23244 ft | 431 kts | 245° |
| 2026-04-16 23:03 | 50.75273 | 10.07377 | 23265 ft | 429 kts | 248° |
| 2026-04-16 23:03 | 50.73968 | 10.03130 | 23246 ft | 430 kts | 248° |
| 2026-04-16 23:04 | 50.72661 | 9.98882 | 23245 ft | 430 kts | 248° |
| 2026-04-16 23:04 | 50.71337 | 9.94640 | 23249 ft | 431 kts | 247° |
| 2026-04-16 23:04 | 50.69994 | 9.90403 | 23244 ft | 432 kts | 247° |
| 2026-04-16 23:04 | 50.68661 | 9.86230 | 23247 ft | 431 kts | 247° |
| 2026-04-16 23:05 | 50.67307 | 9.82011 | 23246 ft | 432 kts | 247° |
| 2026-04-16 23:05 | 50.65928 | 9.77725 | 23247 ft | 432 kts | 247° |
| 2026-04-16 23:05 | 50.64579 | 9.73565 | 23252 ft | 433 kts | 245° |
| 2026-04-16 23:05 | 50.62822 | 9.69660 | 23244 ft | 441 kts | 230° |
| 2026-04-16 23:06 | 50.60486 | 9.66503 | 23259 ft | 447 kts | 218° |
| 2026-04-16 23:06 | 50.57722 | 9.64173 | 23251 ft | 455 kts | 205° |
| 2026-04-16 23:06 | 50.56043 | 9.63200 | 23266 ft | 456 kts | 204° |
| 2026-04-16 23:07 | 50.54914 | 9.62568 | 23254 ft | 456 kts | 204° |
| 2026-04-16 23:07 | 50.51931 | 9.60853 | 23247 ft | 455 kts | 206° |
| 2026-04-16 23:07 | 50.49240 | 9.58373 | 23232 ft | 444 kts | 226° |
| 2026-04-16 23:07 | 50.47258 | 9.54750 | 23244 ft | 434 kts | 241° |
| 2026-04-16 23:08 | 50.45937 | 9.50540 | 23244 ft | 427 kts | 255° |
| 2026-04-16 23:08 | 50.45094 | 9.46091 | 23246 ft | 426 kts | 257° |
| 2026-04-16 23:08 | 50.44303 | 9.41615 | 23236 ft | 426 kts | 258° |
| 2026-04-16 23:08 | 50.43501 | 9.37135 | 23233 ft | 426 kts | 257° |
| 2026-04-16 23:09 | 50.42679 | 9.32697 | 23216 ft | 418 kts | 257° |
| 2026-04-16 23:09 | 50.41863 | 9.28405 | 23064 ft | 407 kts | 257° |
| 2026-04-16 23:09 | 50.41048 | 9.24189 | 22666 ft | 400 kts | 255° |
| 2026-04-16 23:09 | 50.40135 | 9.20080 | 22151 ft | 398 kts | 253° |
| 2026-04-16 23:10 | 50.39169 | 9.16035 | 21667 ft | 394 kts | 252° |
| 2026-04-16 23:10 | 50.38294 | 9.12372 | 21262 ft | 390 kts | 253° |
| 2026-04-16 23:10 | 50.37954 | 9.10932 | 21066 ft | 389 kts | 253° |
| 2026-04-16 23:10 | 50.37025 | 9.06965 | 20553 ft | 386 kts | 253° |
| 2026-04-16 23:11 | 50.36106 | 9.03011 | 20045 ft | 384 kts | 253° |
| 2026-04-16 23:11 | 50.35197 | 8.99107 | 19535 ft | 382 kts | 253° |
| 2026-04-16 23:11 | 50.34286 | 8.95203 | 19012 ft | 380 kts | 252° |
| 2026-04-16 23:11 | 50.33214 | 8.91441 | 18473 ft | 382 kts | 239° |
| 2026-04-16 23:12 | 50.31386 | 8.88406 | 17976 ft | 387 kts | 219° |
| 2026-04-16 23:12 | 50.28997 | 8.86424 | 17494 ft | 391 kts | 201° |
| 2026-04-16 23:12 | 50.26321 | 8.85688 | 17113 ft | 392 kts | 184° |
| 2026-04-16 23:12 | 50.23618 | 8.86233 | 16630 ft | 396 kts | 164° |
| 2026-04-16 23:13 | 50.21212 | 8.88300 | 16128 ft | 399 kts | 139° |
| 2026-04-16 23:13 | 50.19583 | 8.91708 | 15645 ft | 398 kts | 113° |
| 2026-04-16 23:13 | 50.18999 | 8.95876 | 15145 ft | 394 kts | 87° |
| 2026-04-16 23:13 | 50.19615 | 8.99930 | 14902 ft | 380 kts | 60° |
| 2026-04-16 23:14 | 50.21162 | 9.03239 | 14183 ft | 380 kts | 43° |
| 2026-04-16 23:14 | 50.22999 | 9.06196 | 13660 ft | 380 kts | 47° |
| 2026-04-16 23:14 | 50.24569 | 9.09500 | 13227 ft | 378 kts | 53° |
| 2026-04-16 23:14 | 50.26204 | 9.12726 | 12550 ft | 379 kts | 48° |
| 2026-04-16 23:15 | 50.28994 | 9.19656 | 11571 ft | 377 kts | 65° |
| 2026-04-16 23:15 | 50.29978 | 9.23442 | 11224 ft | 371 kts | 69° |
| 2026-04-16 23:15 | 50.30838 | 9.27162 | 11069 ft | 359 kts | 70° |
| 2026-04-16 23:16 | 50.31653 | 9.30802 | 10898 ft | 349 kts | 70° |
| 2026-04-16 23:16 | 50.32453 | 9.34343 | 10747 ft | 339 kts | 70° |
| 2026-04-16 23:16 | 50.33237 | 9.37775 | 10600 ft | 330 kts | 69° |
| 2026-04-16 23:16 | 50.33888 | 9.41113 | 10405 ft | 325 kts | 83° |
| 2026-04-16 23:17 | 50.33620 | 9.44598 | 10147 ft | 326 kts | 113° |
| 2026-04-16 23:17 | 50.32346 | 9.47487 | 9927 ft | 324 kts | 138° |
| 2026-04-16 23:17 | 50.30487 | 9.49417 | 9685 ft | 319 kts | 159° |
| 2026-04-16 23:17 | 50.28363 | 9.50180 | 9420 ft | 311 kts | 180° |
| 2026-04-16 23:18 | 50.26265 | 9.49672 | 9158 ft | 303 kts | 202° |
| 2026-04-16 23:18 | 50.24460 | 9.48072 | 8919 ft | 296 kts | 220° |
| 2026-04-16 23:18 | 50.23164 | 9.45636 | 8640 ft | 290 kts | 247° |
| 2026-04-16 23:18 | 50.22850 | 9.42595 | 8403 ft | 283 kts | 274° |
| 2026-04-16 23:19 | 50.22984 | 9.39546 | 8165 ft | 280 kts | 271° |
| 2026-04-16 23:19 | 50.22932 | 9.36534 | 7899 ft | 273 kts | 265° |
| 2026-04-16 23:19 | 50.22690 | 9.33620 | 7639 ft | 267 kts | 261° |
| 2026-04-16 23:19 | 50.22315 | 9.30810 | 7390 ft | 264 kts | 257° |
| 2026-04-16 23:20 | 50.21850 | 9.28045 | 7135 ft | 262 kts | 255° |
| 2026-04-16 23:20 | 50.21340 | 9.25362 | 6891 ft | 260 kts | 253° |
| 2026-04-16 23:20 | 50.20782 | 9.22648 | 6651 ft | 260 kts | 252° |
| 2026-04-16 23:20 | 50.20214 | 9.20015 | 6391 ft | 258 kts | 252° |
| 2026-04-16 23:21 | 50.19627 | 9.17371 | 6138 ft | 256 kts | 252° |
| 2026-04-16 23:21 | 50.19034 | 9.14753 | 5889 ft | 255 kts | 251° |
| 2026-04-16 23:21 | 50.18451 | 9.12158 | 5638 ft | 253 kts | 254° |
| 2026-04-16 23:21 | 50.17973 | 9.09516 | 5383 ft | 252 kts | 255° |
| 2026-04-16 23:22 | 50.17454 | 9.06911 | 5138 ft | 251 kts | 252° |
| 2026-04-16 23:22 | 50.16881 | 9.04371 | 5020 ft | 244 kts | 251° |
| 2026-04-16 23:22 | 50.16300 | 9.01934 | 4989 ft | 234 kts | 251° |
| 2026-04-16 23:22 | 50.15745 | 8.99605 | 4967 ft | 224 kts | 250° |
| 2026-04-16 23:23 | 50.15190 | 8.97350 | 4988 ft | 222 kts | 250° |
| 2026-04-16 23:23 | 50.14644 | 8.95117 | 4998 ft | 223 kts | 250° |
| 2026-04-16 23:23 | 50.14091 | 8.92849 | 5003 ft | 223 kts | 250° |
| 2026-04-16 23:23 | 50.13555 | 8.90642 | 5010 ft | 213 kts | 250° |
| 2026-04-16 23:24 | 50.13044 | 8.88539 | 4985 ft | 203 kts | 250° |
| 2026-04-16 23:24 | 50.12554 | 8.86514 | 4995 ft | 197 kts | 250° |
| 2026-04-16 23:24 | 50.12061 | 8.84474 | 4720 ft | 203 kts | 250° |
| 2026-04-16 23:24 | 50.11563 | 8.82417 | 4429 ft | 201 kts | 250° |
| 2026-04-16 23:25 | 50.11077 | 8.80403 | 4150 ft | 196 kts | 250° |
| 2026-04-16 23:25 | 50.10604 | 8.78447 | 3879 ft | 191 kts | 250° |
| 2026-04-16 23:25 | 50.10142 | 8.76533 | 3608 ft | 186 kts | 250° |
| 2026-04-16 23:25 | 50.09692 | 8.74666 | 3351 ft | 182 kts | 250° |
| 2026-04-16 23:26 | 50.09255 | 8.72852 | 3102 ft | 175 kts | 250° |
| 2026-04-16 23:26 | 50.08837 | 8.71117 | 2905 ft | 169 kts | 250° |
| 2026-04-16 23:26 | 50.08430 | 8.69421 | 2628 ft | 168 kts | 250° |
| 2026-04-16 23:26 | 50.08032 | 8.67764 | 2394 ft | 160 kts | 249° |
| 2026-04-16 23:27 | 50.07649 | 8.66170 | 2158 ft | 155 kts | 249° |
| 2026-04-16 23:27 | 50.07270 | 8.64593 | 1960 ft | 158 kts | 249° |
| 2026-04-16 23:27 | 50.06883 | 8.62983 | 1727 ft | 160 kts | 249° |
| 2026-04-16 23:27 | 50.06496 | 8.61367 | 1502 ft | 158 kts | 250° |
| 2026-04-16 23:28 | 50.06111 | 8.59761 | 1279 ft | 157 kts | 250° |
| 2026-04-16 23:28 | 50.05733 | 8.58181 | 1055 ft | 156 kts | 250° |
| 2026-04-16 23:28 | 50.05355 | 8.56602 | 828 ft | 154 kts | 250° |
| 2026-04-16 23:28 | 50.04985 | 8.55057 | 631 ft | 154 kts | 250° |
| 2026-04-16 23:29 | 50.04603 | 8.53470 | 430 ft | 154 kts | 249° |
| 2026-04-16 23:29 | 50.04258 | 8.52009 | 364 ft | 124 kts | 248° |
| 2026-04-16 23:29 | 50.04014 | 8.50993 | 343 ft | 79 kts | 250° |
| 2026-04-16 23:29 | 50.03882 | 8.50465 | 335 ft | 17 kts | 233° |
| 2026-04-16 23:30 | 50.03875 | 8.50451 | 333 ft | 0 kts | 231° |